createdAt,value
2023-04-02T00:01:02.293Z,94.59
2023-04-02T00:03:05.025Z,94.22
2023-04-02T00:05:19.604Z,94.61
2023-04-02T00:07:30.267Z,93.66
2023-04-02T00:09:35.880Z,94.26
2023-04-02T00:11:40.391Z,93.66
2023-04-02T00:13:46.937Z,93.26
2023-04-02T00:15:51.653Z,93.61
2023-04-02T00:17:53.617Z,94.01
2023-04-02T00:20:02.538Z,93.95
2023-04-02T00:22:07.541Z,93.33
2023-04-02T00:24:17.862Z,93.87
2023-04-02T00:26:37.325Z,94.05
2023-04-02T00:28:38.777Z,93.30
2023-04-02T00:30:48.094Z,93.45
2023-04-02T00:32:49.807Z,93.64
2023-04-02T00:34:51.632Z,94.11
2023-04-02T00:36:53.500Z,94.14
2023-04-02T00:38:58.256Z,94.29
2023-04-02T00:41:03.737Z,93.56
2023-04-02T00:43:06.846Z,93.82
2023-04-02T00:45:22.537Z,94.20
2023-04-02T00:47:31.787Z,94.58
2023-04-02T00:49:39.468Z,94.14
2023-04-02T00:51:58.325Z,94.05
2023-04-02T00:54:03.954Z,94.25
2023-04-02T00:56:16.758Z,94.40
2023-04-02T00:58:27.564Z,93.80
2023-04-02T01:00:33.282Z,93.85
2023-04-02T01:02:38.402Z,94.01
2023-04-02T01:04:41.460Z,94.84
2023-04-02T01:06:43.941Z,94.60
2023-04-02T01:08:56.825Z,94.42
2023-04-02T01:11:01.260Z,94.48
2023-04-02T01:13:24.493Z,94.76
2023-04-02T01:15:33.520Z,94.48
2023-04-02T01:17:54.726Z,94.45
2023-04-02T01:20:07.791Z,94.55
2023-04-02T01:22:22.436Z,94.38
2023-04-02T01:24:29.790Z,95.02
2023-04-02T01:26:56.470Z,94.57
2023-04-02T01:29:10.645Z,94.81
2023-04-02T01:31:14.766Z,94.14
2023-04-02T01:33:16.286Z,94.34
2023-04-02T01:35:17.870Z,93.34
2023-04-02T01:37:34.877Z,94.13
2023-04-02T01:39:51.335Z,94.27
2023-04-02T01:42:09.187Z,94.17
2023-04-02T01:44:19.466Z,93.95
2023-04-02T01:46:32.793Z,93.89
2023-04-02T01:48:34.463Z,93.93
2023-04-02T01:50:38.723Z,93.74
2023-04-02T01:52:43.154Z,94.00
2023-04-02T01:54:47.174Z,94.25
2023-04-02T01:56:49.864Z,94.27
2023-04-02T01:58:51.358Z,93.63
2023-04-02T02:01:04.040Z,94.39
2023-04-02T02:03:06.283Z,94.44
2023-04-02T02:05:16.452Z,94.19
2023-04-02T02:07:20.747Z,94.44
2023-04-02T02:09:25.963Z,94.44
2023-04-02T02:11:29.976Z,94.01
2023-04-02T02:13:32.108Z,93.98
2023-04-02T02:15:35.880Z,93.87
2023-04-02T02:17:38.192Z,94.36
2023-04-02T02:19:45.465Z,94.52
2023-04-02T02:21:51.558Z,94.04
2023-04-02T02:23:54.910Z,93.95
2023-04-02T02:25:56.478Z,93.81
2023-04-02T02:28:14.345Z,93.44
2023-04-02T02:30:20.122Z,93.91
2023-04-02T02:32:26.381Z,94.01
2023-04-02T02:34:52.255Z,93.21
2023-04-02T02:37:04.404Z,93.35
2023-04-02T02:39:24.150Z,93.40
2023-04-02T02:42:02.862Z,93.19
2023-04-02T02:44:10.689Z,93.12
2023-04-02T02:46:18.009Z,93.52
2023-04-02T02:48:23.364Z,93.70
2023-04-02T02:50:31.667Z,93.33
2023-04-02T02:52:36.824Z,93.32
2023-04-02T02:54:41.669Z,93.75
2023-04-02T02:56:48.152Z,93.44
2023-04-02T02:58:52.800Z,93.35
2023-04-02T03:00:54.479Z,93.17
2023-04-02T03:02:57.810Z,94.25
2023-04-02T03:05:02.741Z,93.98
2023-04-02T03:07:06.119Z,94.21
2023-04-02T03:09:27.255Z,93.73
2023-04-02T03:12:05.693Z,93.35
2023-04-02T03:14:20.359Z,93.80
2023-04-02T03:16:31.962Z,93.89
2023-04-02T03:18:52.266Z,94.36
2023-04-02T03:21:00.437Z,94.71
2023-04-02T03:23:43.259Z,94.43
2023-04-02T03:25:52.596Z,94.66
2023-04-02T03:27:59.665Z,94.30
2023-04-02T03:30:20.956Z,94.41
2023-04-02T03:32:29.244Z,94.13
2023-04-02T03:34:41.392Z,93.92
2023-04-02T03:36:52.057Z,93.71
2023-04-02T03:39:06.431Z,93.33
2023-04-02T03:41:31.851Z,92.88
2023-04-02T03:43:42.283Z,93.60
2023-04-02T03:45:49.307Z,93.13
2023-04-02T03:47:53.711Z,93.54
2023-04-02T03:50:29.276Z,93.58
2023-04-02T03:52:31.194Z,93.12
2023-04-02T03:54:33.425Z,93.51
2023-04-02T03:56:40.134Z,93.78
2023-04-02T03:58:46.967Z,93.10
2023-04-02T04:01:03.767Z,93.46
2023-04-02T04:03:12.809Z,93.61
2023-04-02T04:05:20.448Z,93.59
2023-04-02T04:07:31.046Z,93.63
2023-04-02T04:09:36.958Z,94.00
2023-04-02T04:11:45.702Z,94.00
2023-04-02T04:14:11.112Z,94.06
2023-04-02T04:16:18.984Z,93.67
2023-04-02T04:18:53.004Z,94.51
2023-04-02T04:20:58.706Z,93.76
2023-04-02T04:23:37.499Z,93.82
2023-04-02T04:25:40.086Z,94.17
2023-04-02T04:28:16.612Z,93.97
2023-04-02T04:30:30.838Z,94.04
2023-04-02T04:32:42.665Z,93.65
2023-04-02T04:34:51.417Z,93.39
2023-04-02T04:37:01.579Z,93.34
2023-04-02T04:39:15.098Z,93.04
2023-04-02T04:41:24.323Z,93.21
2023-04-02T04:43:49.069Z,93.13
2023-04-02T04:45:54.399Z,93.09
2023-04-02T04:48:07.472Z,92.80
2023-04-02T04:50:16.304Z,93.08
2023-04-02T04:52:24.781Z,92.91
2023-04-02T04:54:28.146Z,92.35
2023-04-02T04:56:31.575Z,92.04
2023-04-02T04:58:56.157Z,91.90
2023-04-02T05:01:07.293Z,91.90
2023-04-02T05:03:31.151Z,91.97
2023-04-02T05:05:39.226Z,92.50
2023-04-02T05:07:50.807Z,91.65
2023-04-02T05:10:07.760Z,92.46
2023-04-02T05:12:35.354Z,92.04
2023-04-02T05:14:44.568Z,92.23
2023-04-02T05:17:02.294Z,92.36
2023-04-02T05:19:12.295Z,92.42
2023-04-02T05:21:13.628Z,92.35
2023-04-02T05:23:24.882Z,91.99
2023-04-02T05:25:29.380Z,91.93
2023-04-02T05:27:45.357Z,91.99
2023-04-02T05:29:53.788Z,92.14
2023-04-02T05:32:11.882Z,91.43
2023-04-02T05:34:14.565Z,91.65
2023-04-02T05:36:29.182Z,91.77
2023-04-02T05:38:34.460Z,92.10
2023-04-02T05:40:46.263Z,91.52
2023-04-02T05:42:50.946Z,91.57
2023-04-02T05:45:01.969Z,91.64
2023-04-02T05:47:08.705Z,91.79
2023-04-02T05:49:18.502Z,91.28
2023-04-02T05:51:28.416Z,91.86
2023-04-02T05:53:46.376Z,91.64
2023-04-02T05:56:03.119Z,91.96
2023-04-02T05:58:33.952Z,92.13
2023-04-02T06:00:39.778Z,91.38
2023-04-02T06:03:07.345Z,91.44
2023-04-02T06:05:15.919Z,91.85
2023-04-02T06:07:29.070Z,91.31
2023-04-02T06:09:39.316Z,91.43
2023-04-02T06:11:46.213Z,91.43
2023-04-02T06:13:47.649Z,91.03
2023-04-02T06:15:49.221Z,90.71
2023-04-02T06:17:50.715Z,91.03
2023-04-02T06:19:54.403Z,91.46
2023-04-02T06:22:08.430Z,90.67
2023-04-02T06:24:15.345Z,91.08
2023-04-02T06:26:23.999Z,91.30
2023-04-02T06:28:31.482Z,90.62
2023-04-02T06:30:36.989Z,91.93
2023-04-02T06:32:38.457Z,91.10
2023-04-02T06:34:42.064Z,91.45
2023-04-02T06:36:45.498Z,92.15
2023-04-02T06:38:49.672Z,91.97
2023-04-02T06:40:58.732Z,92.04
2023-04-02T06:43:07.192Z,91.74
2023-04-02T06:45:26.275Z,91.39
2023-04-02T06:47:42.441Z,91.16
2023-04-02T06:50:08.018Z,91.34
2023-04-02T06:52:39.117Z,91.53
2023-04-02T06:54:40.510Z,90.90
2023-04-02T06:56:47.580Z,91.35
2023-04-02T06:58:49.206Z,91.31
2023-04-02T07:00:51.070Z,90.90
2023-04-02T07:02:55.289Z,90.78
2023-04-02T07:05:11.565Z,90.70
2023-04-02T07:07:13.135Z,90.61
2023-04-02T07:09:14.833Z,90.48
2023-04-02T07:11:20.901Z,90.20
2023-04-02T07:13:24.252Z,90.29
2023-04-02T07:15:25.853Z,90.26
2023-04-02T07:17:27.542Z,89.67
2023-04-02T07:19:28.952Z,90.16
2023-04-02T07:21:31.228Z,89.39
2023-04-02T07:23:32.730Z,89.94
2023-04-02T07:25:34.437Z,89.82
2023-04-02T07:27:36.257Z,89.16
2023-04-02T07:29:42.505Z,89.03
2023-04-02T07:31:44.221Z,89.01
2023-04-02T07:33:46.269Z,89.12
2023-04-02T07:35:48.377Z,88.71
2023-04-02T07:37:49.869Z,88.92
2023-04-02T07:39:51.659Z,88.37
2023-04-02T07:41:59.058Z,89.01
2023-04-02T07:44:00.671Z,87.99
2023-04-02T07:46:02.972Z,88.04
2023-04-02T07:48:09.568Z,87.86
2023-04-02T07:50:10.996Z,88.20
2023-04-02T07:52:12.583Z,88.40
2023-04-02T07:54:14.096Z,88.23
2023-04-02T07:56:18.019Z,88.15
2023-04-02T07:58:19.387Z,87.92
2023-04-02T08:00:22.612Z,88.24
2023-04-02T08:02:24.394Z,88.27
2023-04-02T08:04:27.357Z,87.53
2023-04-02T08:06:29.185Z,87.66
2023-04-02T08:08:30.969Z,87.08
2023-04-02T08:10:32.359Z,86.36
2023-04-02T08:12:33.772Z,86.81
2023-04-02T08:14:35.554Z,87.45
2023-04-02T08:16:51.987Z,86.78
2023-04-02T08:18:53.526Z,86.42
2023-04-02T08:20:55.044Z,86.62
2023-04-02T08:22:58.084Z,86.43
2023-04-02T08:24:59.500Z,86.66
2023-04-02T08:27:02.145Z,86.66
2023-04-02T08:29:04.032Z,86.54
2023-04-02T08:31:05.528Z,85.81
2023-04-02T08:33:07.041Z,85.84
2023-04-02T08:35:11.001Z,86.11
2023-04-02T08:37:13.564Z,85.58
2023-04-02T08:39:15.064Z,86.23
2023-04-02T08:41:24.526Z,86.13
2023-04-02T08:43:52.051Z,86.01
2023-04-02T08:46:06.530Z,85.36
2023-04-02T08:48:10.751Z,85.07
2023-04-02T08:50:30.979Z,84.68
2023-04-02T08:52:36.709Z,84.92
2023-04-02T08:54:38.224Z,85.50
2023-04-02T08:56:44.320Z,83.96
2023-04-02T08:58:54.284Z,84.10
2023-04-02T09:00:57.731Z,83.92
2023-04-02T09:03:20.653Z,83.94
2023-04-02T09:05:33.884Z,82.93
2023-04-02T09:07:35.748Z,83.12
2023-04-02T09:09:38.289Z,83.91
2023-04-02T09:12:02.814Z,82.87
2023-04-02T09:14:13.960Z,83.32
2023-04-02T09:16:23.025Z,82.98
2023-04-02T09:18:24.560Z,81.94
2023-04-02T09:20:27.518Z,81.51
2023-04-02T09:22:31.662Z,82.25
2023-04-02T09:24:33.898Z,81.83
2023-04-02T09:26:35.896Z,80.62
2023-04-02T09:28:37.843Z,80.68
2023-04-02T09:30:54.445Z,80.41
2023-04-02T09:32:59.570Z,79.69
2023-04-02T09:35:15.009Z,80.25
2023-04-02T09:37:25.342Z,79.95
2023-04-02T09:39:26.870Z,80.77
2023-04-02T09:41:30.021Z,80.00
2023-04-02T09:43:36.943Z,80.39
2023-04-02T09:45:39.406Z,79.08
2023-04-02T09:47:42.478Z,79.67
2023-04-02T09:49:44.020Z,79.71
2023-04-02T09:51:45.682Z,80.26
2023-04-02T09:53:49.195Z,79.84
2023-04-02T09:56:08.214Z,79.70
2023-04-02T09:58:12.475Z,79.07
2023-04-02T10:00:25.945Z,78.88
2023-04-02T10:02:32.063Z,79.69
2023-04-02T10:04:49.505Z,80.23
2023-04-02T10:06:53.344Z,78.92
2023-04-02T10:08:54.839Z,79.06
2023-04-02T10:11:00.490Z,80.62
2023-04-02T10:13:13.011Z,79.27
2023-04-02T10:15:23.097Z,78.82
2023-04-02T10:17:37.257Z,78.64
2023-04-02T10:19:42.561Z,78.79
2023-04-02T10:21:47.110Z,79.04
2023-04-02T10:23:48.763Z,78.72
2023-04-02T10:26:27.698Z,78.64
2023-04-02T10:28:44.220Z,78.17
2023-04-02T10:31:02.556Z,78.12
2023-04-02T10:33:17.814Z,78.55
2023-04-02T10:35:31.466Z,78.28
2023-04-02T10:37:52.028Z,78.56
2023-04-02T10:40:01.889Z,78.76
2023-04-02T10:42:21.712Z,79.00
2023-04-02T10:44:37.288Z,78.39
2023-04-02T10:47:05.091Z,77.03
2023-04-02T10:49:34.901Z,76.81
2023-04-02T10:52:14.749Z,77.11
2023-04-02T10:54:46.778Z,76.33
2023-04-02T10:56:51.424Z,76.44
2023-04-02T10:59:02.527Z,77.26
2023-04-02T11:01:13.533Z,77.22
2023-04-02T11:03:24.187Z,76.85
2023-04-02T11:05:44.453Z,75.91
2023-04-02T11:07:59.862Z,76.37
2023-04-02T11:10:02.001Z,75.06
2023-04-02T11:12:05.661Z,76.08
2023-04-02T11:14:12.715Z,75.51
2023-04-02T11:16:16.974Z,74.68
2023-04-02T11:18:28.969Z,75.01
2023-04-02T11:20:43.677Z,74.56
2023-04-02T11:22:47.377Z,73.94
2023-04-02T11:24:51.905Z,74.25
2023-04-02T11:26:54.191Z,74.36
2023-04-02T11:29:05.016Z,74.90
2023-04-02T11:31:06.621Z,75.00
2023-04-02T11:33:44.007Z,74.06
2023-04-02T11:35:46.435Z,74.32
2023-04-02T11:37:48.061Z,74.08
2023-04-02T11:39:56.722Z,74.84
2023-04-02T11:42:21.761Z,73.36
2023-04-02T11:44:24.287Z,75.09
2023-04-02T11:46:28.733Z,73.91
2023-04-02T11:48:36.164Z,73.85
2023-04-02T11:50:40.546Z,74.04
2023-04-02T11:52:45.360Z,74.01
2023-04-02T11:54:56.521Z,73.44
2023-04-02T11:57:15.452Z,73.95
2023-04-02T11:59:50.612Z,72.87
2023-04-02T12:01:57.959Z,73.96
2023-04-02T12:04:08.194Z,73.54
2023-04-02T12:06:26.997Z,72.93
2023-04-02T12:08:54.342Z,74.43
2023-04-02T12:11:01.501Z,73.06
2023-04-02T12:13:02.896Z,73.15
2023-04-02T12:15:36.966Z,71.91
2023-04-02T12:17:39.707Z,73.53
2023-04-02T12:19:46.090Z,72.34
2023-04-02T12:21:47.978Z,72.07
2023-04-02T12:23:53.267Z,72.10
2023-04-02T12:25:59.785Z,72.12
2023-04-02T12:28:07.545Z,72.80
2023-04-02T12:30:22.227Z,71.73
2023-04-02T12:32:30.901Z,71.31
2023-04-02T12:34:32.567Z,72.20
2023-04-02T12:36:34.645Z,70.86
2023-04-02T12:38:45.609Z,70.63
2023-04-02T12:41:02.396Z,71.44
2023-04-02T12:43:03.764Z,71.71
2023-04-02T12:45:06.823Z,70.03
2023-04-02T12:47:11.241Z,70.53
2023-04-02T12:49:34.504Z,72.48
2023-04-02T12:51:37.099Z,71.27
2023-04-02T12:53:41.149Z,70.12
2023-04-02T12:55:48.288Z,71.10
2023-04-02T12:57:54.850Z,70.29
2023-04-02T12:59:58.438Z,70.05
2023-04-02T13:02:02.347Z,70.78
2023-04-02T13:04:08.426Z,69.91
2023-04-02T13:06:24.342Z,69.40
2023-04-02T13:08:29.642Z,67.94
2023-04-02T13:10:31.716Z,68.80
2023-04-02T13:12:41.052Z,69.40
2023-04-02T13:14:42.503Z,66.74
2023-04-02T13:16:44.068Z,67.59
2023-04-02T13:18:48.101Z,67.42
2023-04-02T13:20:58.090Z,69.46
2023-04-02T13:23:02.297Z,67.77
2023-04-02T13:25:04.409Z,68.07
2023-04-02T13:27:06.246Z,67.09
2023-04-02T13:29:21.064Z,66.30
2023-04-02T13:31:22.468Z,67.19
2023-04-02T13:33:24.192Z,67.38
2023-04-02T13:35:27.300Z,67.11
2023-04-02T13:37:28.955Z,67.96
2023-04-02T13:39:30.894Z,66.95
2023-04-02T13:41:39.720Z,67.99
2023-04-02T13:43:41.414Z,64.71
2023-04-02T13:45:45.793Z,64.49
2023-04-02T13:47:47.288Z,63.80
2023-04-02T13:49:49.487Z,63.88
2023-04-02T13:51:58.693Z,66.46
2023-04-02T13:54:00.216Z,64.44
2023-04-02T13:56:01.860Z,63.40
2023-04-02T13:58:04.428Z,62.31
2023-04-02T14:00:06.520Z,62.70
2023-04-02T14:02:34.387Z,64.65
2023-04-02T14:04:43.033Z,63.43
2023-04-02T14:06:57.965Z,63.72
2023-04-02T14:09:07.700Z,63.17
2023-04-02T14:11:17.929Z,64.54
2023-04-02T14:13:25.231Z,64.18
2023-04-02T14:15:59.709Z,64.33
2023-04-02T14:18:41.110Z,65.06
2023-04-02T14:21:10.950Z,64.28
2023-04-02T14:23:15.228Z,65.07
2023-04-02T14:25:25.548Z,64.74
2023-04-02T14:27:42.021Z,64.26
2023-04-02T14:30:25.330Z,63.80
2023-04-02T14:32:41.952Z,63.32
2023-04-02T14:35:04.707Z,64.22
2023-04-02T14:37:13.665Z,63.49
2023-04-02T14:39:27.192Z,63.82
2023-04-02T14:41:36.935Z,64.39
2023-04-02T14:43:46.270Z,62.88
2023-04-02T14:45:57.543Z,64.84
2023-04-02T14:48:26.234Z,63.81
2023-04-02T14:50:39.061Z,63.11
2023-04-02T14:52:44.139Z,62.80
2023-04-02T14:55:00.220Z,62.61
2023-04-02T14:57:29.240Z,61.19
2023-04-02T14:59:44.811Z,62.85
2023-04-02T15:01:49.267Z,60.82
2023-04-02T15:04:05.292Z,63.15
2023-04-02T15:06:11.969Z,60.24
2023-04-02T15:08:48.311Z,61.17
2023-04-02T15:11:05.835Z,62.69
2023-04-02T15:13:20.046Z,62.42
2023-04-02T15:15:42.743Z,62.98
2023-04-02T15:17:44.174Z,61.19
2023-04-02T15:19:46.364Z,61.08
2023-04-02T15:22:09.867Z,61.50
2023-04-02T15:24:22.808Z,61.68
2023-04-02T15:26:47.943Z,61.39
2023-04-02T15:29:27.767Z,62.11
2023-04-02T15:31:33.685Z,62.73
2023-04-02T15:33:38.137Z,63.62
2023-04-02T15:35:47.609Z,62.92
2023-04-02T15:38:22.607Z,62.07
2023-04-02T15:40:42.936Z,61.86
2023-04-02T15:43:00.010Z,63.01
2023-04-02T15:45:07.869Z,61.83
2023-04-02T15:47:20.288Z,59.47
2023-04-02T15:49:41.188Z,59.63
2023-04-02T15:52:01.326Z,60.69
2023-04-02T15:54:17.907Z,48.71
2023-04-02T15:56:58.325Z,35.50
2023-04-02T15:59:23.995Z,32.69
2023-04-02T16:01:48.728Z,34.44
2023-04-02T16:04:18.160Z,44.55
2023-04-02T16:06:32.369Z,46.60
2023-04-02T16:08:52.917Z,50.33
2023-04-02T16:10:54.375Z,51.86
2023-04-02T16:12:56.395Z,52.37
2023-04-02T16:15:07.813Z,50.07
2023-04-02T16:17:24.971Z,39.50
2023-04-02T16:19:40.122Z,47.47
2023-04-02T16:21:50.380Z,50.12
2023-04-02T16:23:51.757Z,51.52
2023-04-02T16:26:08.030Z,52.92
2023-04-02T16:28:23.734Z,33.92
2023-04-02T16:30:39.848Z,30.46
2023-04-02T16:32:53.325Z,42.01
2023-04-02T16:35:41.207Z,39.74
2023-04-02T16:37:48.786Z,42.94
2023-04-02T16:40:11.618Z,46.95
2023-04-02T16:42:34.830Z,48.16
2023-04-02T16:45:09.579Z,51.25
2023-04-02T16:47:35.666Z,51.84
2023-04-02T16:49:57.399Z,52.29
2023-04-02T16:52:10.395Z,51.88
2023-04-02T16:54:18.467Z,52.88
2023-04-02T16:56:35.070Z,54.00
2023-04-02T16:59:02.125Z,54.85
2023-04-02T17:01:25.646Z,55.56
2023-04-02T17:03:46.930Z,55.28
2023-04-02T17:06:09.170Z,56.99
2023-04-02T17:08:30.150Z,57.24
2023-04-02T17:10:41.039Z,57.76
2023-04-02T17:12:48.407Z,58.90
2023-04-02T17:14:58.585Z,59.05
2023-04-02T17:17:04.737Z,59.81
2023-04-02T17:19:11.439Z,59.70
2023-04-02T17:21:17.460Z,60.62
2023-04-02T17:23:20.842Z,60.70
2023-04-02T17:25:32.159Z,61.82
2023-04-02T17:27:43.277Z,62.17
2023-04-02T17:29:47.195Z,62.92
2023-04-02T17:31:50.340Z,63.70
2023-04-02T17:33:51.747Z,64.01
2023-04-02T17:36:08.509Z,62.97
2023-04-02T17:38:24.359Z,63.04
2023-04-02T17:40:42.155Z,64.04
2023-04-02T17:42:58.233Z,64.52
2023-04-02T17:45:32.807Z,65.28
2023-04-02T17:47:49.385Z,65.38
2023-04-02T17:50:26.019Z,65.05
2023-04-02T17:52:40.828Z,66.71
2023-04-02T17:55:08.290Z,65.70
2023-04-02T17:57:21.547Z,66.17
2023-04-02T17:59:47.315Z,67.18
2023-04-02T18:02:01.437Z,68.42
2023-04-02T18:04:30.722Z,68.27
2023-04-02T18:07:27.771Z,69.66
2023-04-02T18:09:34.745Z,69.73
2023-04-02T18:11:50.797Z,70.68
2023-04-02T18:14:17.162Z,70.62
2023-04-02T18:16:34.588Z,71.17
2023-04-02T18:18:38.692Z,71.80
2023-04-02T18:20:57.161Z,72.32
2023-04-02T18:23:35.259Z,72.35
2023-04-02T18:25:50.323Z,73.54
2023-04-02T18:28:12.778Z,73.49
2023-04-02T18:30:27.548Z,73.51
2023-04-02T18:32:50.094Z,74.38
2023-04-02T18:35:27.048Z,74.31
2023-04-02T18:38:01.040Z,74.60
2023-04-02T18:40:17.253Z,74.78
2023-04-02T18:42:24.693Z,75.27
2023-04-02T18:45:03.281Z,74.83
2023-04-02T18:47:17.018Z,75.67
2023-04-02T18:49:36.897Z,77.04
2023-04-02T18:51:39.996Z,76.08
2023-04-02T18:53:43.034Z,76.06
2023-04-02T18:55:56.197Z,76.75
2023-04-02T18:58:02.391Z,77.05
2023-04-02T19:00:16.741Z,76.89
2023-04-02T19:02:33.037Z,76.37
2023-04-02T19:04:36.717Z,76.28
2023-04-02T19:06:48.204Z,76.89
2023-04-02T19:09:15.019Z,77.16
2023-04-02T19:11:28.550Z,78.08
2023-04-02T19:13:29.949Z,77.41
2023-04-02T19:15:51.849Z,78.38
2023-04-02T19:18:04.322Z,77.28
2023-04-02T19:20:19.321Z,77.48
2023-04-02T19:22:44.693Z,77.62
2023-04-02T19:25:00.914Z,77.09
2023-04-02T19:27:19.130Z,78.11
2023-04-02T19:29:44.790Z,78.88
2023-04-02T19:31:55.506Z,78.60
2023-04-02T19:34:12.181Z,79.23
2023-04-02T19:36:28.846Z,79.64
2023-04-02T19:38:55.825Z,79.12
2023-04-02T19:40:57.129Z,79.09
2023-04-02T19:42:58.606Z,79.75
2023-04-02T19:45:00.217Z,80.14
2023-04-02T19:47:02.159Z,79.94
2023-04-02T19:49:12.607Z,80.46
2023-04-02T19:51:14.106Z,79.58
2023-04-02T19:53:16.204Z,80.38
2023-04-02T19:55:17.633Z,79.98
2023-04-02T19:57:19.229Z,80.34
2023-04-02T19:59:20.833Z,80.91
2023-04-02T20:01:22.727Z,80.24
2023-04-02T20:03:24.509Z,80.62
2023-04-02T20:05:26.133Z,81.00
2023-04-02T20:07:27.513Z,81.96
2023-04-02T20:09:29.755Z,81.54
2023-04-02T20:11:31.245Z,81.52
2023-04-02T20:13:33.502Z,82.10
2023-04-02T20:15:35.709Z,81.17
2023-04-02T20:17:37.404Z,81.03
2023-04-02T20:19:38.811Z,81.13
2023-04-02T20:21:40.534Z,81.48
2023-04-02T20:23:42.044Z,81.80
2023-04-02T20:25:54.071Z,81.93
2023-04-02T20:27:55.501Z,81.90
2023-04-02T20:29:56.991Z,82.49
2023-04-02T20:31:58.354Z,81.75
2023-04-02T20:34:00.125Z,81.78
2023-04-02T20:36:05.553Z,81.81
2023-04-02T20:38:08.203Z,81.23
2023-04-02T20:40:10.712Z,81.75
2023-04-02T20:42:13.976Z,81.50
2023-04-02T20:44:15.812Z,82.37
2023-04-02T20:46:17.630Z,82.16
2023-04-02T20:48:19.075Z,81.78
2023-04-02T20:50:20.452Z,82.70
2023-04-02T20:52:21.988Z,82.84
2023-04-02T20:54:23.448Z,83.54
2023-04-02T20:56:24.845Z,82.91
2023-04-02T20:58:26.449Z,83.18
2023-04-02T21:00:27.825Z,82.65
2023-04-02T21:02:29.223Z,83.36
2023-04-02T21:04:30.656Z,83.39
2023-04-02T21:06:34.757Z,82.46
2023-04-02T21:08:36.910Z,83.26
2023-04-02T21:10:39.511Z,83.07
2023-04-02T21:12:41.025Z,83.84
2023-04-02T21:14:42.400Z,83.60
2023-04-02T21:16:43.917Z,83.66
2023-04-02T21:18:46.615Z,83.31
2023-04-02T21:20:57.763Z,83.81
2023-04-02T21:22:59.139Z,83.71
2023-04-02T21:25:00.755Z,83.68
2023-04-02T21:27:02.150Z,83.47
2023-04-02T21:29:04.393Z,84.21
2023-04-02T21:31:10.775Z,83.62
2023-04-02T21:33:12.272Z,83.67
2023-04-02T21:35:13.691Z,82.78
2023-04-02T21:37:15.387Z,83.89
2023-04-02T21:39:23.058Z,83.58
2023-04-02T21:41:28.644Z,83.65
2023-04-02T21:43:29.991Z,84.15
2023-04-02T21:45:31.477Z,83.11
2023-04-02T21:47:32.891Z,83.45
2023-04-02T21:49:34.314Z,83.46
2023-04-02T21:51:37.668Z,83.58
2023-04-02T21:53:40.326Z,82.80
2023-04-02T21:55:41.730Z,83.01
2023-04-02T21:57:43.164Z,83.62
2023-04-02T21:59:44.602Z,83.14
2023-04-02T22:01:48.914Z,83.76
2023-04-02T22:03:50.875Z,83.20
2023-04-02T22:06:16.564Z,83.46
2023-04-02T22:08:17.951Z,84.12
2023-04-02T22:10:19.414Z,84.44
2023-04-02T22:12:20.883Z,84.91
2023-04-02T22:14:23.040Z,84.29
2023-04-02T22:16:27.043Z,84.63
2023-04-02T22:18:28.582Z,84.56
2023-04-02T22:20:29.981Z,84.72
2023-04-02T22:22:31.570Z,83.85
2023-04-02T22:24:33.003Z,84.67
2023-04-02T22:26:35.066Z,84.93
2023-04-02T22:28:37.204Z,85.21
2023-04-02T22:30:39.014Z,85.01
2023-04-02T22:32:40.724Z,85.25
2023-04-02T22:34:45.526Z,85.30
2023-04-02T22:36:47.337Z,85.31
2023-04-02T22:38:49.633Z,84.76
2023-04-02T22:40:51.188Z,84.78
2023-04-02T22:42:52.680Z,85.59
2023-04-02T22:44:54.168Z,85.40
2023-04-02T22:46:55.585Z,84.45
2023-04-02T22:48:57.401Z,84.84
2023-04-02T22:50:58.846Z,84.50
2023-04-02T22:53:00.401Z,84.77
2023-04-02T22:55:01.814Z,85.29
2023-04-02T22:57:03.340Z,85.97
2023-04-02T22:59:04.843Z,85.80
2023-04-02T23:01:09.100Z,85.53
2023-04-02T23:03:10.765Z,85.27
2023-04-02T23:05:12.839Z,85.23
2023-04-02T23:07:14.247Z,85.23
2023-04-02T23:09:15.763Z,84.43
2023-04-02T23:11:22.561Z,85.25
2023-04-02T23:13:23.962Z,85.11
2023-04-02T23:15:25.479Z,85.11
2023-04-02T23:17:26.916Z,85.08
2023-04-02T23:19:28.289Z,85.28
2023-04-02T23:21:29.885Z,85.12
2023-04-02T23:23:31.971Z,85.36
2023-04-02T23:25:33.361Z,85.59
2023-04-02T23:27:34.827Z,85.76
2023-04-02T23:29:36.207Z,86.10
2023-04-02T23:31:37.805Z,86.01
2023-04-02T23:33:39.802Z,86.36
2023-04-02T23:35:41.215Z,86.25
2023-04-02T23:37:42.635Z,85.99
2023-04-02T23:39:44.054Z,86.10
2023-04-02T23:41:46.114Z,86.00
2023-04-02T23:43:47.674Z,86.26
2023-04-02T23:45:49.655Z,86.50
2023-04-02T23:47:51.098Z,86.94
2023-04-02T23:49:52.501Z,86.67
2023-04-02T23:51:54.060Z,86.91
2023-04-02T23:53:55.764Z,86.74
2023-04-02T23:55:57.450Z,86.56
2023-04-02T23:57:58.866Z,87.20
